Terminal Aerodrome Forecast
Issued by NWS Sterling, VA

Home | Current Version | Previous Version | Text Only | Print | Product List | Glossary On
Versions: 1 2 3 4 5 6 7 8 9 10 11 12 13 14 15 16 17 18 19 20 21
000
FTUS41 KLWX 182300 RRA
TAFDCA
TAF
KDCA 182343Z 1900/1924 12006KT P6SM FEW080 OVC200
     FM191200 01004KT P6SM BKN250
     FM191500 35010KT P6SM BKN250
     FM192100 36005KT P6SM FEW250=

USA.gov is the U.S. government's official web portal to all federal, state and local government web resources and services.